Time;durP1;ratioP1;P1;durP2;ratioP2;P2;SDS_P1;SDS_P2;PMS_P1;PMS_P2;Temp;Humidity;BMP_temperature;BMP_pressure;BME280_temperature;BME280_humidity;BME280_pressure;Samples;Min_cycle;Max_cycle;Signal;HPM_P1;HPM_P2
2021/03/08 00:00:13;;;;;;;37.28;21.23;;;;;;;;;;5115132;28;20216;-66
2021/03/08 00:02:40;;;;;;;31.90;19.05;;;;;;;;;;5115174;28;20283;-66
2021/03/08 00:05:09;;;;;;;36.15;21.23;;;;;;;;;;5114958;28;20203;-67
2021/03/08 00:07:36;;;;;;;35.60;20.65;;;;;;;;;;5115310;28;20277;-66
2021/03/08 00:10:04;;;;;;;32.33;19.42;;;;;;;;;;5115299;28;20284;-66
2021/03/08 00:12:30;;;;;;;39.42;20.73;;;;;;;;;;5115019;28;20197;-66
2021/03/08 00:14:57;;;;;;;37.80;22.23;;;;;;;;;;5114665;28;20296;-67
2021/03/08 00:17:24;;;;;;;39.38;22.02;;;;;;;;;;5115575;28;20284;-66
2021/03/08 00:19:51;;;;;;;28.55;18.67;;;;;;;;;;5115055;28;20304;-66
2021/03/08 00:22:19;;;;;;;37.63;20.88;;;;;;;;;;5114907;28;20192;-66
2021/03/08 00:24:46;;;;;;;39.45;22.20;;;;;;;;;;5115012;28;20193;-66
2021/03/08 00:27:12;;;;;;;35.75;19.90;;;;;;;;;;5114513;28;20284;-66
2021/03/08 00:29:39;;;;;;;38.90;21.05;;;;;;;;;;5114953;28;20201;-66
2021/03/08 00:32:08;;;;;;;39.38;20.17;;;;;;;;;;5114946;28;20284;-66
2021/03/08 00:34:35;;;;;;;35.00;19.77;;;;;;;;;;5114571;28;20193;-66
2021/03/08 00:37:01;;;;;;;33.58;22.02;;;;;;;;;;5114166;28;20205;-67
2021/03/08 00:39:29;;;;;;;32.15;18.50;;;;;;;;;;5114405;28;20695;-66
2021/03/08 00:41:56;;;;;;;37.28;22.80;;;;;;;;;;5114648;28;20220;-66
2021/03/08 00:44:22;;;;;;;41.60;19.75;;;;;;;;;;5114618;28;20579;-66
2021/03/08 00:46:49;;;;;;;39.28;22.90;;;;;;;;;;5114346;28;20630;-66
2021/03/08 00:49:16;;;;;;;43.83;21.98;;;;;;;;;;5114444;28;20716;-67
2021/03/08 00:51:43;;;;;;;47.00;21.08;;;;;;;;;;5113962;28;20192;-66
2021/03/08 00:54:09;;;;;;;40.03;21.33;;;;;;;;;;5114280;28;20284;-66
2021/03/08 00:56:37;;;;;;;36.92;20.05;;;;;;;;;;5114232;28;20237;-65
2021/03/08 00:59:04;;;;;;;43.35;23.48;;;;;;;;;;5113796;28;20216;-66
2021/03/08 01:01:30;;;;;;;39.28;20.60;;;;;;;;;;5113909;28;20232;-65
2021/03/08 01:03:57;;;;;;;37.15;21.00;;;;;;;;;;5114210;28;20276;-65
2021/03/08 01:06:24;;;;;;;36.92;20.17;;;;;;;;;;5113929;28;20222;-65
2021/03/08 01:08:51;;;;;;;37.65;21.77;;;;;;;;;;5113639;28;20288;-66
2021/03/08 01:11:17;;;;;;;35.50;20.50;;;;;;;;;;5113848;28;20327;-66
2021/03/08 01:13:45;;;;;;;28.30;17.90;;;;;;;;;;5113494;28;20283;-65
2021/03/08 01:16:12;;;;;;;38.75;22.70;;;;;;;;;;5113629;28;20197;-66
2021/03/08 01:18:38;;;;;;;37.67;18.95;;;;;;;;;;5113142;28;20310;-65
2021/03/08 01:21:05;;;;;;;41.75;22.83;;;;;;;;;;5113575;28;20220;-66
2021/03/08 01:23:32;;;;;;;35.22;21.13;;;;;;;;;;5113732;28;20674;-65
2021/03/08 01:25:59;;;;;;;35.40;23.05;;;;;;;;;;5113934;28;20198;-66
2021/03/08 01:28:25;;;;;;;39.20;22.23;;;;;;;;;;5113682;28;20245;-65
2021/03/08 01:30:53;;;;;;;33.58;19.92;;;;;;;;;;5114090;28;20603;-67
2021/03/08 01:33:20;;;;;;;38.45;21.77;;;;;;;;;;5113549;28;20279;-66
2021/03/08 01:35:46;;;;;;;34.72;21.52;;;;;;;;;;5113608;28;20200;-66
2021/03/08 01:38:13;;;;;;;35.15;20.35;;;;;;;;;;5113175;28;20198;-66
2021/03/08 01:40:41;;;;;;;31.75;20.45;;;;;;;;;;5113096;28;20248;-67
2021/03/08 01:43:08;;;;;;;41.25;22.00;;;;;;;;;;5113440;28;20235;-67
2021/03/08 01:45:35;;;;;;;35.03;21.40;;;;;;;;;;5113541;28;20228;-67
2021/03/08 01:48:03;;;;;;;37.50;22.50;;;;;;;;;;5114057;28;20241;-67
2021/03/08 01:50:31;;;;;;;41.30;22.50;;;;;;;;;;5113099;28;20710;-66
2021/03/08 01:52:58;;;;;;;41.15;21.95;;;;;;;;;;5113380;28;20217;-66
2021/03/08 01:55:25;;;;;;;39.35;20.95;;;;;;;;;;5113234;28;20297;-66
2021/03/08 01:57:52;;;;;;;36.45;21.42;;;;;;;;;;5113361;28;20196;-66
2021/03/08 02:00:19;;;;;;;36.20;22.63;;;;;;;;;;5112829;28;20304;-66
2021/03/08 02:02:47;;;;;;;38.03;20.67;;;;;;;;;;5112916;28;20234;-66
2021/03/08 02:05:16;;;;;;;35.03;21.15;;;;;;;;;;5113148;28;20196;-66
2021/03/08 02:07:42;;;;;;;45.97;22.45;;;;;;;;;;5112805;28;20284;-66
2021/03/08 02:10:10;;;;;;;43.90;22.90;;;;;;;;;;5112655;28;20236;-65
2021/03/08 02:12:42;;;;;;;41.38;21.75;;;;;;;;;;5113439;28;20223;-66
2021/03/08 02:15:13;;;;;;;35.65;20.13;;;;;;;;;;5113520;28;20281;-66
2021/03/08 02:17:43;;;;;;;36.30;21.40;;;;;;;;;;5113411;28;20279;-66
2021/03/08 02:20:33;;;;;;;38.60;22.38;;;;;;;;;;5112693;28;20299;-66
2021/03/08 02:23:18;;;;;;;34.10;19.95;;;;;;;;;;5113468;28;20185;-66
2021/03/08 02:25:56;;;;;;;39.95;21.35;;;;;;;;;;5112769;28;20232;-66
2021/03/08 02:28:41;;;;;;;41.47;22.35;;;;;;;;;;5113739;28;20669;-66
2021/03/08 02:31:09;;;;;;;38.88;23.27;;;;;;;;;;5113049;28;20284;-66
2021/03/08 02:33:36;;;;;;;44.35;23.48;;;;;;;;;;5116659;28;20189;-66
2021/03/08 02:36:04;;;;;;;43.92;21.67;;;;;;;;;;5116698;28;20725;-66
2021/03/08 02:38:32;;;;;;;37.90;20.60;;;;;;;;;;5116560;28;20280;-65
2021/03/08 02:41:01;;;;;;;37.15;21.73;;;;;;;;;;5116414;28;20231;-65
2021/03/08 02:43:30;;;;;;;43.65;24.10;;;;;;;;;;5116516;28;20291;-65
2021/03/08 02:45:58;;;;;;;41.85;21.83;;;;;;;;;;5116960;28;20197;-65
2021/03/08 02:48:27;;;;;;;44.80;23.70;;;;;;;;;;5116455;28;20283;-65
2021/03/08 02:50:55;;;;;;;41.45;23.33;;;;;;;;;;5116367;28;20291;-66
2021/03/08 02:53:22;;;;;;;39.67;22.20;;;;;;;;;;5116293;28;20200;-66
2021/03/08 02:55:52;;;;;;;37.50;20.75;;;;;;;;;;5116259;28;20193;-66
2021/03/08 02:58:20;;;;;;;40.03;21.95;;;;;;;;;;5116212;28;20287;-65
2021/03/08 03:00:48;;;;;;;38.95;23.42;;;;;;;;;;5117137;28;20307;-65
2021/03/08 03:03:15;;;;;;;46.75;22.45;;;;;;;;;;5116752;28;20197;-66
2021/03/08 03:05:42;;;;;;;42.97;22.02;;;;;;;;;;5116552;28;20292;-65
2021/03/08 03:08:10;;;;;;;44.33;22.27;;;;;;;;;;5116343;28;20774;-65
2021/03/08 03:10:38;;;;;;;42.10;24.25;;;;;;;;;;5116296;28;20303;-65
2021/03/08 03:13:05;;;;;;;47.05;23.08;;;;;;;;;;5116084;28;20710;-65
2021/03/08 03:15:32;;;;;;;41.88;22.88;;;;;;;;;;5116081;28;20228;-65
2021/03/08 03:17:59;;;;;;;44.92;24.10;;;;;;;;;;5115650;28;20222;-65
2021/03/08 03:20:27;;;;;;;44.50;24.60;;;;;;;;;;5116480;28;20311;-65
2021/03/08 03:22:55;;;;;;;42.10;21.05;;;;;;;;;;5116187;28;20607;-66
2021/03/08 03:25:24;;;;;;;40.80;22.48;;;;;;;;;;5116138;28;20279;-66
2021/03/08 03:27:51;;;;;;;54.25;25.10;;;;;;;;;;5115817;28;20682;-66
2021/03/08 03:30:19;;;;;;;47.15;25.70;;;;;;;;;;5115780;28;20293;-66
2021/03/08 03:32:47;;;;;;;37.80;20.92;;;;;;;;;;5115530;28;20240;-66
2021/03/08 03:35:15;;;;;;;49.63;24.02;;;;;;;;;;5115823;28;20280;-66
2021/03/08 03:37:42;;;;;;;48.03;23.48;;;;;;;;;;5116154;28;20283;-66
2021/03/08 03:40:10;;;;;;;50.92;25.92;;;;;;;;;;5116443;28;20219;-66
2021/03/08 03:42:37;;;;;;;52.40;25.85;;;;;;;;;;5115766;28;20284;-65
2021/03/08 03:45:06;;;;;;;47.17;25.70;;;;;;;;;;5115710;28;20283;-66
2021/03/08 03:47:33;;;;;;;51.88;27.48;;;;;;;;;;5115713;28;20615;-65
2021/03/08 03:50:00;;;;;;;44.70;25.60;;;;;;;;;;5115554;28;20197;-67
2021/03/08 03:52:27;;;;;;;50.28;24.05;;;;;;;;;;5115701;28;20280;-66
2021/03/08 03:54:54;;;;;;;49.95;25.77;;;;;;;;;;5115553;28;20192;-66
2021/03/08 03:57:22;;;;;;;49.72;24.98;;;;;;;;;;5115877;28;20254;-66
2021/03/08 03:59:50;;;;;;;46.05;25.70;;;;;;;;;;5115354;28;20674;-65
2021/03/08 04:02:19;;;;;;;58.25;26.70;;;;;;;;;;5116281;28;20280;-66
2021/03/08 04:04:49;;;;;;;58.25;26.75;;;;;;;;;;5115848;28;20272;-65
2021/03/08 04:07:17;;;;;;;51.88;26.63;;;;;;;;;;5115867;28;20272;-70
2021/03/08 04:09:46;;;;;;;51.47;25.98;;;;;;;;;;5115634;28;20204;-66
2021/03/08 04:12:13;;;;;;;51.35;26.90;;;;;;;;;;5115481;28;20260;-65
2021/03/08 04:14:42;;;;;;;55.58;27.70;;;;;;;;;;5115149;28;20224;-65
2021/03/08 04:17:09;;;;;;;65.68;28.83;;;;;;;;;;5115557;28;20235;-65
2021/03/08 04:19:36;;;;;;;52.63;26.70;;;;;;;;;;5114904;28;20346;-64
2021/03/08 04:22:04;;;;;;;53.30;27.98;;;;;;;;;;5115798;28;20201;-65
2021/03/08 04:24:32;;;;;;;54.60;29.35;;;;;;;;;;5114779;28;20283;-65
2021/03/08 04:27:00;;;;;;;48.45;26.27;;;;;;;;;;5114696;28;20722;-65
2021/03/08 04:29:27;;;;;;;52.45;28.40;;;;;;;;;;5115061;28;20734;-65
2021/03/08 04:31:54;;;;;;;61.13;28.52;;;;;;;;;;5114584;28;20287;-65
2021/03/08 04:34:21;;;;;;;54.58;28.55;;;;;;;;;;5115182;28;20200;-65
2021/03/08 04:36:48;;;;;;;65.50;31.58;;;;;;;;;;5114719;28;20279;-65
2021/03/08 04:39:15;;;;;;;56.10;27.98;;;;;;;;;;5114540;28;20262;-65
2021/03/08 04:41:42;;;;;;;54.45;28.83;;;;;;;;;;5114255;28;20750;-66
2021/03/08 04:44:09;;;;;;;58.17;27.75;;;;;;;;;;5114337;28;20280;-66
2021/03/08 04:46:37;;;;;;;47.95;24.98;;;;;;;;;;5114888;28;20288;-65
2021/03/08 04:49:07;;;;;;;56.65;28.83;;;;;;;;;;5114626;28;20310;-66
2021/03/08 04:51:34;;;;;;;54.65;28.85;;;;;;;;;;5114792;28;20607;-65
2021/03/08 04:54:02;;;;;;;45.95;26.00;;;;;;;;;;5113959;28;20220;-66
2021/03/08 04:56:30;;;;;;;48.72;26.85;;;;;;;;;;5114210;28;20283;-66
2021/03/08 04:58:57;;;;;;;55.65;28.75;;;;;;;;;;5114363;28;20256;-65
2021/03/08 05:01:24;;;;;;;46.45;25.20;;;;;;;;;;5114975;28;20280;-66
2021/03/08 05:03:52;;;;;;;53.15;26.23;;;;;;;;;;5129387;27;20188;-65
2021/03/08 05:06:20;;;;;;;49.72;26.95;;;;;;;;;;5133747;27;20236;-65
2021/03/08 05:08:47;;;;;;;59.33;27.55;;;;;;;;;;5133343;27;20204;-65
2021/03/08 05:11:14;;;;;;;71.60;30.38;;;;;;;;;;5133586;27;20264;-66
2021/03/08 05:13:41;;;;;;;55.15;30.85;;;;;;;;;;5134498;27;20214;-65
2021/03/08 05:16:09;;;;;;;61.33;29.40;;;;;;;;;;5134616;27;20242;-65
2021/03/08 05:18:37;;;;;;;54.72;26.98;;;;;;;;;;5134106;27;20192;-65
2021/03/08 05:21:04;;;;;;;58.67;28.48;;;;;;;;;;5134642;27;20306;-65
2021/03/08 05:23:31;;;;;;;53.33;26.95;;;;;;;;;;5134092;27;20288;-65
2021/03/08 05:26:01;;;;;;;52.47;28.80;;;;;;;;;;5134074;27;20189;-65
2021/03/08 05:28:30;;;;;;;56.40;27.13;;;;;;;;;;5134879;27;20180;-65
2021/03/08 05:30:58;;;;;;;61.08;30.25;;;;;;;;;;5132994;27;20235;-65
2021/03/08 05:33:26;;;;;;;52.85;29.80;;;;;;;;;;5132224;27;20243;-64
2021/03/08 05:35:55;;;;;;;60.20;31.15;;;;;;;;;;5134044;27;20286;-65
2021/03/08 05:38:22;;;;;;;53.53;26.70;;;;;;;;;;5134176;27;20225;-65
2021/03/08 05:40:54;;;;;;;61.33;30.52;;;;;;;;;;5134084;27;20272;-65
2021/03/08 05:43:21;;;;;;;66.05;31.38;;;;;;;;;;5133315;27;20301;-66
2021/03/08 05:45:54;;;;;;;66.85;29.15;;;;;;;;;;5134021;27;20283;-65
2021/03/08 05:48:48;;;;;;;57.78;28.75;;;;;;;;;;5133784;27;20196;-65
2021/03/08 05:51:42;;;;;;;57.40;29.25;;;;;;;;;;5133300;27;20188;-65
2021/03/08 05:54:15;;;;;;;61.90;27.63;;;;;;;;;;5132195;27;20288;-65
2021/03/08 05:56:48;;;;;;;57.50;29.38;;;;;;;;;;5132992;27;20634;-65
2021/03/08 05:59:22;;;;;;;77.00;31.30;;;;;;;;;;5133021;27;20203;-65
2021/03/08 06:02:07;;;;;;;68.38;29.63;;;;;;;;;;5132966;28;20276;-66
2021/03/08 06:04:43;;;;;;;66.10;32.13;;;;;;;;;;5130786;28;20224;-65
2021/03/08 06:07:36;;;;;;;67.70;30.58;;;;;;;;;;5137206;27;20184;-65
2021/03/08 06:10:04;;;;;;;68.72;29.85;;;;;;;;;;5137888;27;20219;-65
2021/03/08 06:12:34;;;;;;;86.47;34.05;;;;;;;;;;5137884;27;20740;-65
2021/03/08 06:15:02;;;;;;;69.85;31.27;;;;;;;;;;5137960;27;20235;-65
2021/03/08 06:17:31;;;;;;;62.63;29.98;;;;;;;;;;5138462;27;20283;-65
2021/03/08 06:19:58;;;;;;;72.63;29.25;;;;;;;;;;5138204;27;20244;-64
2021/03/08 06:22:26;;;;;;;65.78;30.55;;;;;;;;;;5137665;27;20278;-65
2021/03/08 06:24:53;;;;;;;80.65;32.65;;;;;;;;;;5136872;27;20199;-65
2021/03/08 06:27:20;;;;;;;77.30;33.90;;;;;;;;;;5136745;27;20235;-65
2021/03/08 06:29:48;;;;;;;85.22;33.55;;;;;;;;;;5136642;27;20291;-65
2021/03/08 06:32:15;;;;;;;76.97;33.20;;;;;;;;;;5137094;27;20204;-65
2021/03/08 06:34:42;;;;;;;81.95;35.55;;;;;;;;;;5137702;27;20289;-65
2021/03/08 06:37:09;;;;;;;84.45;34.85;;;;;;;;;;5137744;27;20654;-65
2021/03/08 06:39:36;;;;;;;77.57;32.13;;;;;;;;;;5137616;27;20261;-68
2021/03/08 06:42:03;;;;;;;90.57;34.10;;;;;;;;;;5137712;27;20200;-63
2021/03/08 06:44:30;;;;;;;77.85;33.63;;;;;;;;;;5137522;27;20200;-64
2021/03/08 06:46:58;;;;;;;73.75;33.95;;;;;;;;;;5137716;27;20215;-63
2021/03/08 06:49:25;;;;;;;82.72;34.58;;;;;;;;;;5137512;27;20290;-63
2021/03/08 06:52:02;;;;;;;68.70;33.45;;;;;;;;;;5137496;27;20650;-63
2021/03/08 06:54:29;;;;;;;90.75;35.00;;;;;;;;;;5137212;27;20196;-63
2021/03/08 06:56:56;;;;;;;81.05;32.20;;;;;;;;;;5137179;27;20287;-64
2021/03/08 06:59:22;;;;;;;77.28;33.80;;;;;;;;;;5137468;27;20289;-63
2021/03/08 07:01:51;;;;;;;84.50;34.50;;;;;;;;;;5137483;27;20276;-63
2021/03/08 07:04:21;;;;;;;75.72;31.95;;;;;;;;;;5137810;27;20283;-63
2021/03/08 07:07:01;;;;;;;79.95;34.15;;;;;;;;;;5137503;27;20200;-63
2021/03/08 07:09:28;;;;;;;79.40;32.75;;;;;;;;;;5136824;27;20282;-64
2021/03/08 07:12:05;;;;;;;67.25;31.98;;;;;;;;;;5136925;27;20232;-64
2021/03/08 07:14:32;;;;;;;72.82;33.88;;;;;;;;;;5137176;27;20252;-64
2021/03/08 07:16:59;;;;;;;63.25;29.38;;;;;;;;;;5135877;27;20235;-64
2021/03/08 07:19:26;;;;;;;67.53;31.35;;;;;;;;;;5136842;27;20311;-65
2021/03/08 07:21:53;;;;;;;84.07;27.90;;;;;;;;;;5136796;27;20252;-64
2021/03/08 07:24:20;;;;;;;67.00;30.02;;;;;;;;;;5136598;27;20200;-64
2021/03/08 07:26:51;;;;;;;73.20;30.35;;;;;;;;;;5137526;27;20283;-64
2021/03/08 07:29:19;;;;;;;61.00;28.00;;;;;;;;;;5136552;27;20203;-64
2021/03/08 07:31:47;;;;;;;52.60;26.40;;;;;;;;;;5136384;27;20192;-64
2021/03/08 07:34:14;;;;;;;56.03;23.98;;;;;;;;;;5137044;27;20252;-64
2021/03/08 07:36:42;;;;;;;56.60;26.08;;;;;;;;;;5136146;27;20695;-64
2021/03/08 07:39:10;;;;;;;53.92;26.30;;;;;;;;;;5136432;27;20196;-65
2021/03/08 07:41:50;;;;;;;54.90;26.42;;;;;;;;;;5137090;27;20533;-65
2021/03/08 07:44:18;;;;;;;55.88;23.20;;;;;;;;;;5137078;27;20237;-65
2021/03/08 07:46:45;;;;;;;59.10;26.00;;;;;;;;;;5136747;27;20605;-65
2021/03/08 07:49:11;;;;;;;50.65;25.48;;;;;;;;;;5136934;27;20222;-64
2021/03/08 07:51:58;;;;;;;53.90;24.58;;;;;;;;;;5136446;27;20200;-64
2021/03/08 07:54:26;;;;;;;43.72;24.13;;;;;;;;;;5136518;27;20220;-65
2021/03/08 07:56:54;;;;;;;47.10;22.95;;;;;;;;;;5136206;27;20227;-64
2021/03/08 07:59:21;;;;;;;43.10;21.00;;;;;;;;;;5136632;27;20194;-65
2021/03/08 08:01:50;;;;;;;42.78;20.00;;;;;;;;;;5136223;27;20285;-65
2021/03/08 08:04:16;;;;;;;42.75;21.92;;;;;;;;;;5136020;27;20204;-64
2021/03/08 08:06:43;;;;;;;43.65;21.90;;;;;;;;;;5136472;27;20219;-65
2021/03/08 08:09:11;;;;;;;44.45;20.75;;;;;;;;;;5136806;27;20235;-64
2021/03/08 08:11:39;;;;;;;46.70;21.65;;;;;;;;;;5136130;27;20228;-64
2021/03/08 08:14:06;;;;;;;49.08;22.75;;;;;;;;;;5136126;27;20319;-64
2021/03/08 08:16:33;;;;;;;40.15;20.15;;;;;;;;;;5136237;27;20588;-64
2021/03/08 08:19:03;;;;;;;42.78;18.88;;;;;;;;;;5135685;27;20228;-64
2021/03/08 08:21:33;;;;;;;37.35;18.75;;;;;;;;;;5136454;27;20220;-64
2021/03/08 08:24:02;;;;;;;34.97;17.48;;;;;;;;;;5136119;27;20208;-64
2021/03/08 08:26:29;;;;;;;39.70;17.85;;;;;;;;;;5135368;27;20196;-64
2021/03/08 08:28:57;;;;;;;37.20;17.40;;;;;;;;;;5135900;27;20195;-64
2021/03/08 08:31:24;;;;;;;36.15;16.08;;;;;;;;;;5135853;27;20196;-63
2021/03/08 08:33:50;;;;;;;41.35;18.88;;;;;;;;;;5135977;27;20241;-64
2021/03/08 08:36:20;;;;;;;30.20;16.00;;;;;;;;;;5135432;27;20662;-64
2021/03/08 08:39:01;;;;;;;35.47;16.17;;;;;;;;;;5134906;27;20193;-64
2021/03/08 08:41:29;;;;;;;31.80;14.88;;;;;;;;;;5133376;27;20256;-63
2021/03/08 08:44:13;;;;;;;28.30;14.10;;;;;;;;;;5134796;27;20670;-64
2021/03/08 08:46:42;;;;;;;38.55;14.50;;;;;;;;;;5134375;27;20244;-64
2021/03/08 08:49:10;;;;;;;27.10;14.15;;;;;;;;;;5134785;27;20690;-64
2021/03/08 08:51:46;;;;;;;29.10;12.43;;;;;;;;;;5135049;27;20203;-64
2021/03/08 08:54:32;;;;;;;24.42;11.10;;;;;;;;;;5134992;27;20192;-65
2021/03/08 08:57:09;;;;;;;17.15;10.05;;;;;;;;;;5135345;27;20602;-64
2021/03/08 08:59:37;;;;;;;23.77;11.52;;;;;;;;;;5134597;27;20244;-63
2021/03/08 09:02:21;;;;;;;15.80;9.50;;;;;;;;;;5135359;27;20193;-64
2021/03/08 09:04:48;;;;;;;18.73;9.68;;;;;;;;;;5134677;27;20193;-64
2021/03/08 09:07:18;;;;;;;21.27;10.55;;;;;;;;;;5134465;27;20214;-64
2021/03/08 09:09:55;;;;;;;18.52;9.93;;;;;;;;;;5134843;27;20232;-63
2021/03/08 09:12:32;;;;;;;20.02;10.90;;;;;;;;;;5134184;27;20271;-64
2021/03/08 09:14:59;;;;;;;26.70;11.70;;;;;;;;;;5135268;27;20600;-64
2021/03/08 09:17:27;;;;;;;26.33;13.05;;;;;;;;;;5134724;27;20196;-64
2021/03/08 09:20:09;;;;;;;30.40;13.13;;;;;;;;;;5135045;27;20239;-64
2021/03/08 09:22:42;;;;;;;25.88;13.18;;;;;;;;;;5118153;27;20203;-65
2021/03/08 09:25:16;;;;;;;21.02;11.90;;;;;;;;;;5134506;27;20634;-64
2021/03/08 09:27:44;;;;;;;18.05;11.70;;;;;;;;;;5135185;27;20191;-64
2021/03/08 09:30:12;;;;;;;31.13;13.10;;;;;;;;;;5134980;27;20599;-63
2021/03/08 09:32:47;;;;;;;23.15;11.75;;;;;;;;;;5134754;27;20224;-64
2021/03/08 09:35:14;;;;;;;19.63;12.15;;;;;;;;;;5134345;27;20184;-64
2021/03/08 09:37:44;;;;;;;20.13;10.82;;;;;;;;;;5134758;27;20192;-64
2021/03/08 09:40:12;;;;;;;23.13;10.68;;;;;;;;;;5133877;27;20209;-64
2021/03/08 09:42:40;;;;;;;21.17;11.63;;;;;;;;;;5134060;27;20671;-65
2021/03/08 09:45:15;;;;;;;18.25;11.30;;;;;;;;;;5134147;27;20239;-64
2021/03/08 09:47:42;;;;;;;19.70;11.20;;;;;;;;;;5134340;27;20651;-64
2021/03/08 09:50:09;;;;;;;18.38;11.43;;;;;;;;;;5134416;27;20276;-65
2021/03/08 09:52:37;;;;;;;17.05;10.45;;;;;;;;;;5134363;27;20190;-64
2021/03/08 09:55:05;;;;;;;15.13;9.38;;;;;;;;;;5134013;27;20196;-64
2021/03/08 09:57:34;;;;;;;20.90;11.57;;;;;;;;;;5134125;27;20674;-64
2021/03/08 10:00:01;;;;;;;26.48;12.25;;;;;;;;;;5134456;27;20245;-64
2021/03/08 10:02:28;;;;;;;19.33;11.52;;;;;;;;;;5134170;27;20204;-64
2021/03/08 10:04:55;;;;;;;26.38;11.70;;;;;;;;;;5133831;28;20202;-65
2021/03/08 10:07:23;;;;;;;22.75;11.27;;;;;;;;;;5134594;28;20694;-64
2021/03/08 10:09:50;;;;;;;22.63;10.90;;;;;;;;;;5134127;28;20314;-64
2021/03/08 10:12:25;;;;;;;28.45;11.85;;;;;;;;;;5134414;28;20263;-64
2021/03/08 10:14:59;;;;;;;22.20;11.70;;;;;;;;;;5134566;28;20518;-65
2021/03/08 10:17:26;;;;;;;25.83;10.77;;;;;;;;;;5134697;28;20231;-64
2021/03/08 10:19:57;;;;;;;13.80;9.77;;;;;;;;;;5133946;28;20212;-65
2021/03/08 10:22:33;;;;;;;16.05;10.25;;;;;;;;;;5133812;28;20228;-64
2021/03/08 10:25:02;;;;;;;20.38;9.10;;;;;;;;;;5134118;28;20292;-65
2021/03/08 10:27:33;;;;;;;13.57;9.38;;;;;;;;;;5133877;28;20641;-65
2021/03/08 10:30:00;;;;;;;21.38;9.30;;;;;;;;;;5133943;28;20672;-63
2021/03/08 10:32:26;;;;;;;16.02;9.48;;;;;;;;;;5133628;28;20192;-64
2021/03/08 10:34:53;;;;;;;19.08;10.18;;;;;;;;;;5133799;28;20201;-65
2021/03/08 10:37:20;;;;;;;16.38;10.40;;;;;;;;;;5133627;28;20266;-64
2021/03/08 10:39:51;;;;;;;21.65;9.80;;;;;;;;;;5133874;28;20740;-65
2021/03/08 10:42:22;;;;;;;19.40;8.80;;;;;;;;;;5133576;28;20293;-65
2021/03/08 10:44:50;;;;;;;18.15;10.40;;;;;;;;;;5133603;28;20326;-65
2021/03/08 10:47:17;;;;;;;24.92;9.95;;;;;;;;;;5134022;28;20204;-64
2021/03/08 10:49:48;;;;;;;14.48;9.32;;;;;;;;;;5134005;28;20241;-65
2021/03/08 10:52:15;;;;;;;15.70;9.45;;;;;;;;;;5133867;27;20319;-65
2021/03/08 10:54:42;;;;;;;18.85;9.68;;;;;;;;;;5138078;27;20189;-64
2021/03/08 10:57:09;;;;;;;15.50;8.40;;;;;;;;;;5138165;27;20243;-64
2021/03/08 10:59:36;;;;;;;15.98;9.60;;;;;;;;;;5137534;27;20280;-64
2021/03/08 11:02:04;;;;;;;15.85;8.00;;;;;;;;;;5137564;27;20555;-64
2021/03/08 11:04:31;;;;;;;17.48;8.00;;;;;;;;;;5137599;27;20221;-64
2021/03/08 11:06:58;;;;;;;14.95;8.00;;;;;;;;;;5137431;27;20194;-64
2021/03/08 11:09:26;;;;;;;12.30;7.63;;;;;;;;;;5137408;27;20242;-64
2021/03/08 11:11:53;;;;;;;20.42;7.38;;;;;;;;;;5137191;27;20272;-64
2021/03/08 11:14:20;;;;;;;13.60;8.35;;;;;;;;;;5137505;27;20232;-64
2021/03/08 11:16:50;;;;;;;11.90;7.72;;;;;;;;;;5137614;27;20235;-64
2021/03/08 11:19:19;;;;;;;15.15;9.35;;;;;;;;;;5137031;27;20266;-64
2021/03/08 11:21:46;;;;;;;13.48;8.07;;;;;;;;;;5136884;27;20217;-65
2021/03/08 11:24:17;;;;;;;16.13;7.68;;;;;;;;;;5136926;27;20190;-64
2021/03/08 11:26:44;;;;;;;13.43;8.15;;;;;;;;;;5136961;27;20200;-65
2021/03/08 11:29:22;;;;;;;11.40;6.97;;;;;;;;;;5136665;27;20283;-64
2021/03/08 11:31:53;;;;;;;12.38;7.30;;;;;;;;;;5136682;27;20184;-64
2021/03/08 11:34:35;;;;;;;13.63;8.00;;;;;;;;;;5136680;27;20185;-65
2021/03/08 11:37:07;;;;;;;13.32;7.13;;;;;;;;;;5136494;27;20185;-64
2021/03/08 11:39:38;;;;;;;13.88;6.95;;;;;;;;;;5136829;27;20652;-64
2021/03/08 11:42:05;;;;;;;10.60;7.00;;;;;;;;;;5136799;27;20222;-64
2021/03/08 11:44:32;;;;;;;8.98;7.15;;;;;;;;;;5136736;27;20192;-64
2021/03/08 11:46:59;;;;;;;14.18;7.80;;;;;;;;;;5136426;27;20193;-64
2021/03/08 11:49:26;;;;;;;13.05;8.00;;;;;;;;;;5136450;27;20681;-65
2021/03/08 11:51:53;;;;;;;13.43;7.70;;;;;;;;;;5136817;27;20188;-64
2021/03/08 11:54:20;;;;;;;13.80;7.53;;;;;;;;;;5136375;27;20299;-65
2021/03/08 11:56:47;;;;;;;12.70;7.68;;;;;;;;;;5135959;27;20203;-64
2021/03/08 11:59:14;;;;;;;13.45;7.95;;;;;;;;;;5136575;27;20236;-64
2021/03/08 12:01:40;;;;;;;11.73;6.90;;;;;;;;;;5136344;27;20249;-64
2021/03/08 12:04:07;;;;;;;11.40;8.15;;;;;;;;;;5136504;27;20232;-65
2021/03/08 12:06:34;;;;;;;16.02;8.07;;;;;;;;;;5136923;27;20202;-64
2021/03/08 12:09:01;;;;;;;17.15;9.30;;;;;;;;;;5136372;27;20193;-65
2021/03/08 12:11:29;;;;;;;14.07;9.07;;;;;;;;;;5136128;27;20315;-64
2021/03/08 12:13:56;;;;;;;17.25;9.68;;;;;;;;;;5137155;27;20195;-64
2021/03/08 12:16:23;;;;;;;13.45;7.93;;;;;;;;;;5136035;27;20639;-64
2021/03/08 12:18:50;;;;;;;14.25;9.02;;;;;;;;;;5136140;27;20202;-64
2021/03/08 12:21:19;;;;;;;13.93;8.02;;;;;;;;;;5136558;27;20220;-64
2021/03/08 12:23:46;;;;;;;14.75;9.30;;;;;;;;;;5136452;27;20702;-64
2021/03/08 12:26:14;;;;;;;14.65;9.27;;;;;;;;;;5136754;27;20288;-64
2021/03/08 12:28:42;;;;;;;11.90;7.78;;;;;;;;;;5135758;27;20193;-64
2021/03/08 12:31:08;;;;;;;10.80;6.55;;;;;;;;;;5135964;27;20655;-64
2021/03/08 12:33:37;;;;;;;19.50;7.80;;;;;;;;;;5135700;27;20562;-64
2021/03/08 12:36:04;;;;;;;16.65;6.80;;;;;;;;;;5135899;27;20608;-65
2021/03/08 12:38:31;;;;;;;12.18;6.28;;;;;;;;;;5135921;27;20197;-64
2021/03/08 12:40:58;;;;;;;13.68;7.50;;;;;;;;;;5135875;27;20574;-64
2021/03/08 12:43:30;;;;;;;11.40;7.57;;;;;;;;;;5136661;27;20336;-64
2021/03/08 12:45:58;;;;;;;18.95;8.23;;;;;;;;;;5135500;27;20657;-64
2021/03/08 12:48:25;;;;;;;15.95;7.97;;;;;;;;;;5135693;27;20242;-64
2021/03/08 12:50:52;;;;;;;17.13;8.73;;;;;;;;;;5135421;27;20204;-64
2021/03/08 12:53:19;;;;;;;18.13;8.40;;;;;;;;;;5135292;27;20193;-64
2021/03/08 12:55:45;;;;;;;12.25;7.53;;;;;;;;;;5135291;27;20231;-64
2021/03/08 12:58:12;;;;;;;15.23;7.88;;;;;;;;;;5135152;27;20197;-64
2021/03/08 13:00:39;;;;;;;15.57;7.97;;;;;;;;;;5135080;27;20754;-64
2021/03/08 13:03:07;;;;;;;13.55;7.63;;;;;;;;;;5135352;27;20598;-64
2021/03/08 13:05:33;;;;;;;17.60;8.25;;;;;;;;;;5135284;27;20232;-64
2021/03/08 13:08:00;;;;;;;10.95;7.78;;;;;;;;;;5135288;27;20197;-64
2021/03/08 13:10:27;;;;;;;14.50;8.73;;;;;;;;;;5134886;27;20287;-65
2021/03/08 13:12:54;;;;;;;15.00;8.15;;;;;;;;;;5135804;27;20311;-64
2021/03/08 13:15:21;;;;;;;12.05;7.32;;;;;;;;;;5134507;27;20626;-65
2021/03/08 13:17:48;;;;;;;14.52;7.90;;;;;;;;;;5134971;27;20622;-65
2021/03/08 13:20:17;;;;;;;13.77;7.20;;;;;;;;;;5135071;27;20748;-64
2021/03/08 13:22:44;;;;;;;13.88;8.32;;;;;;;;;;5135111;27;20197;-64
2021/03/08 13:25:12;;;;;;;14.40;8.48;;;;;;;;;;5135060;27;20217;-65
2021/03/08 13:27:39;;;;;;;11.13;7.43;;;;;;;;;;5134747;27;20665;-64
2021/03/08 13:30:06;;;;;;;12.85;7.50;;;;;;;;;;5135000;27;20216;-65
2021/03/08 13:32:33;;;;;;;11.30;8.18;;;;;;;;;;5134899;27;20189;-66
2021/03/08 13:35:00;;;;;;;12.50;7.60;;;;;;;;;;5134934;27;20577;-65
2021/03/08 13:37:28;;;;;;;11.90;7.70;;;;;;;;;;5134763;27;20554;-65
2021/03/08 13:39:55;;;;;;;12.48;7.68;;;;;;;;;;5134951;27;20229;-65
2021/03/08 13:42:22;;;;;;;13.85;8.15;;;;;;;;;;5134799;27;20233;-65
2021/03/08 13:44:49;;;;;;;17.75;8.98;;;;;;;;;;5134312;27;20811;-65
2021/03/08 13:47:16;;;;;;;17.90;9.65;;;;;;;;;;5134618;27;20344;-65
2021/03/08 13:49:42;;;;;;;12.70;8.05;;;;;;;;;;5135126;27;20281;-65
2021/03/08 13:52:09;;;;;;;16.50;8.27;;;;;;;;;;5135131;27;20279;-75
2021/03/08 13:54:37;;;;;;;13.20;8.05;;;;;;;;;;5134948;27;20223;-69
2021/03/08 13:57:04;;;;;;;16.35;7.40;;;;;;;;;;5134186;27;20206;-69
2021/03/08 13:59:30;;;;;;;15.50;7.53;;;;;;;;;;5134502;27;20258;-68
2021/03/08 14:01:58;;;;;;;11.10;6.85;;;;;;;;;;5135015;27;20217;-68
2021/03/08 14:04:24;;;;;;;13.07;7.10;;;;;;;;;;5133394;27;20203;-67
2021/03/08 14:06:51;;;;;;;14.45;6.93;;;;;;;;;;5132921;28;20268;-68
2021/03/08 14:09:18;;;;;;;12.98;7.43;;;;;;;;;;5133848;28;20218;-68
2021/03/08 14:11:46;;;;;;;9.45;6.25;;;;;;;;;;5133984;28;20229;-68
2021/03/08 14:14:12;;;;;;;12.35;6.72;;;;;;;;;;5134226;28;20283;-68
2021/03/08 14:16:39;;;;;;;11.93;7.55;;;;;;;;;;5133701;28;20193;-68
2021/03/08 14:19:06;;;;;;;11.52;7.72;;;;;;;;;;5134642;28;20221;-68
2021/03/08 14:21:33;;;;;;;8.60;5.97;;;;;;;;;;5133339;28;20217;-69
2021/03/08 14:24:00;;;;;;;11.80;6.20;;;;;;;;;;5134289;28;20190;-67
2021/03/08 14:26:27;;;;;;;12.82;6.80;;;;;;;;;;5135098;27;20208;-69
2021/03/08 14:28:55;;;;;;;8.27;6.43;;;;;;;;;;5138002;27;20288;-69